createdAt,value
2019-04-30T00:00:30.401Z,10.24
2019-04-30T00:01:28.726Z,10.28
2019-04-30T00:02:34.823Z,10.25
2019-04-30T00:03:28.740Z,10.24
2019-04-30T00:04:29.796Z,10.24
2019-04-30T00:05:28.687Z,10.31
2019-04-30T00:06:34.684Z,10.24
2019-04-30T00:07:28.666Z,10.18
2019-04-30T00:08:30.227Z,10.29
2019-04-30T00:09:28.672Z,10.26
2019-04-30T00:10:35.951Z,10.20
2019-04-30T00:11:28.661Z,10.26
2019-04-30T00:12:30.800Z,10.22
2019-04-30T00:13:28.597Z,10.26
2019-04-30T00:14:32.503Z,10.29
2019-04-30T00:15:28.606Z,10.28
2019-04-30T00:16:30.972Z,10.25
2019-04-30T00:17:28.554Z,10.22
2019-04-30T00:18:30.748Z,10.29
2019-04-30T00:19:28.563Z,10.17
2019-04-30T00:20:30.002Z,10.25
2019-04-30T00:21:28.511Z,10.32
2019-04-30T00:22:33.888Z,10.26
2019-04-30T00:23:30.600Z,10.26
2019-04-30T00:24:27.512Z,10.24
2019-04-30T00:25:28.637Z,10.28
2019-04-30T00:26:27.457Z,10.25
2019-04-30T00:27:30.207Z,10.25
2019-04-30T00:28:27.490Z,10.29
2019-04-30T00:29:30.814Z,10.25
2019-04-30T00:30:27.414Z,10.26
2019-04-30T00:31:27.631Z,10.28
2019-04-30T00:32:27.401Z,10.22
2019-04-30T00:33:27.698Z,10.16
2019-04-30T00:34:30.884Z,10.26
2019-04-30T00:35:28.391Z,10.26
2019-04-30T00:36:33.884Z,10.28
2019-04-30T00:37:28.333Z,10.26
2019-04-30T00:38:29.570Z,10.22
2019-04-30T00:39:28.335Z,10.22
2019-04-30T00:40:30.131Z,10.25
2019-04-30T00:41:27.294Z,10.22
2019-04-30T00:42:28.799Z,10.25
2019-04-30T00:43:27.289Z,10.17
2019-04-30T00:44:28.460Z,10.25
2019-04-30T00:45:27.248Z,10.16
2019-04-30T00:46:29.315Z,10.28
2019-04-30T00:47:27.231Z,10.25
2019-04-30T00:48:31.005Z,10.29
2019-04-30T00:49:27.225Z,10.28
2019-04-30T00:50:29.037Z,10.26
2019-04-30T00:51:27.218Z,10.25
2019-04-30T00:52:29.535Z,10.25
2019-04-30T00:53:28.165Z,10.31
2019-04-30T00:54:30.619Z,10.26
2019-04-30T00:55:27.146Z,10.26
2019-04-30T00:56:28.340Z,10.25
2019-04-30T00:57:27.161Z,10.25
2019-04-30T00:58:30.262Z,10.25
2019-04-30T00:59:27.107Z,10.24
2019-04-30T01:00:29.586Z,10.11
2019-04-30T01:01:27.088Z,10.16
2019-04-30T01:02:31.775Z,10.11
2019-04-30T01:03:28.072Z,10.11
2019-04-30T01:04:28.236Z,10.13
2019-04-30T01:05:27.160Z,10.13
2019-04-30T01:06:28.629Z,10.16
2019-04-30T01:07:27.016Z,10.20
2019-04-30T01:08:28.615Z,10.14
2019-04-30T01:09:26.986Z,10.13
2019-04-30T01:10:28.424Z,10.13
2019-04-30T01:11:26.972Z,10.17
2019-04-30T01:12:29.670Z,10.09
2019-04-30T01:13:29.110Z,10.04
2019-04-30T01:14:28.253Z,10.13
2019-04-30T01:15:29.036Z,10.02
2019-04-30T01:16:30.162Z,10.01
2019-04-30T01:17:29.866Z,9.99
2019-04-30T01:18:30.576Z,10.09
2019-04-30T01:19:32.165Z,9.96
2019-04-30T01:20:29.117Z,10.06
2019-04-30T01:21:28.557Z,10.04
2019-04-30T01:22:31.174Z,10.01
2019-04-30T01:23:29.622Z,9.98
2019-04-30T01:24:28.417Z,10.04
2019-04-30T01:25:28.755Z,9.99
2019-04-30T01:26:29.662Z,9.96
2019-04-30T01:27:28.398Z,9.98
2019-04-30T01:28:28.426Z,9.93
2019-04-30T01:29:31.111Z,10.01
2019-04-30T01:30:28.467Z,9.98
2019-04-30T01:31:31.634Z,9.96
2019-04-30T01:32:28.493Z,9.93
2019-04-30T01:33:28.441Z,9.93
2019-04-30T01:34:29.385Z,9.89
2019-04-30T01:35:30.867Z,9.92
2019-04-30T01:36:29.367Z,9.92
2019-04-30T01:37:29.577Z,9.95
2019-04-30T01:38:28.698Z,9.91
2019-04-30T01:39:30.047Z,10.02
2019-04-30T01:40:28.461Z,9.98
2019-04-30T01:41:28.260Z,9.89
2019-04-30T01:42:28.401Z,9.91
2019-04-30T01:43:32.503Z,10.01
2019-04-30T01:44:29.403Z,9.93
2019-04-30T01:45:28.122Z,9.95
2019-04-30T01:46:26.621Z,9.92
2019-04-30T01:47:27.828Z,9.92
2019-04-30T01:48:26.577Z,9.92
2019-04-30T01:49:27.198Z,9.78
2019-04-30T01:50:26.563Z,9.92
2019-04-30T01:51:28.250Z,9.89
2019-04-30T01:52:29.200Z,9.88
2019-04-30T01:53:28.560Z,9.91
2019-04-30T01:54:26.501Z,9.85
2019-04-30T01:55:26.487Z,9.86
2019-04-30T01:56:26.500Z,9.91
2019-04-30T01:57:26.483Z,9.83
2019-04-30T01:58:29.995Z,9.80
2019-04-30T01:59:26.453Z,9.78
2019-04-30T02:00:26.472Z,9.81
2019-04-30T02:01:26.426Z,9.81
2019-04-30T02:02:28.530Z,9.80
2019-04-30T02:03:26.416Z,9.88
2019-04-30T02:04:26.398Z,9.83
2019-04-30T02:05:26.374Z,9.78
2019-04-30T02:06:26.398Z,9.80
2019-04-30T02:07:26.406Z,9.74
2019-04-30T02:08:26.357Z,9.71
2019-04-30T02:09:26.332Z,9.75
2019-04-30T02:10:26.339Z,9.73
2019-04-30T02:11:26.314Z,9.81
2019-04-30T02:12:26.324Z,9.75
2019-04-30T02:13:26.325Z,9.78
2019-04-30T02:14:26.290Z,9.83
2019-04-30T02:15:26.278Z,9.80
2019-04-30T02:16:26.254Z,9.78
2019-04-30T02:17:26.265Z,9.78
2019-04-30T02:18:26.270Z,9.78
2019-04-30T02:19:26.229Z,9.80
2019-04-30T02:20:26.225Z,9.75
2019-04-30T02:21:26.210Z,9.75
2019-04-30T02:22:26.204Z,9.78
2019-04-30T02:23:26.186Z,9.73
2019-04-30T02:24:26.194Z,9.78
2019-04-30T02:25:26.157Z,9.75
2019-04-30T02:26:26.160Z,9.75
2019-04-30T02:27:26.150Z,9.68
2019-04-30T02:28:26.164Z,9.71
2019-04-30T02:29:26.120Z,9.67
2019-04-30T02:30:26.103Z,9.68
2019-04-30T02:31:26.114Z,9.71
2019-04-30T02:32:26.090Z,9.68
2019-04-30T02:33:26.091Z,9.70
2019-04-30T02:34:26.075Z,9.70
2019-04-30T02:35:26.092Z,9.63
2019-04-30T02:36:26.034Z,9.70
2019-04-30T02:37:26.032Z,9.68
2019-04-30T02:38:26.034Z,9.71
2019-04-30T02:39:26.011Z,9.73
2019-04-30T02:40:25.994Z,9.67
2019-04-30T02:41:25.995Z,9.68
2019-04-30T02:42:25.975Z,9.73
2019-04-30T02:43:26.029Z,9.65
2019-04-30T02:44:29.191Z,9.73
2019-04-30T02:45:25.934Z,9.62
2019-04-30T02:46:26.026Z,9.68
2019-04-30T02:47:25.927Z,9.70
2019-04-30T02:48:25.954Z,9.70
2019-04-30T02:49:25.915Z,9.67
2019-04-30T02:50:25.889Z,9.68
2019-04-30T02:51:25.872Z,9.71
2019-04-30T02:52:25.890Z,9.63
2019-04-30T02:53:25.848Z,9.59
2019-04-30T02:54:25.871Z,9.67
2019-04-30T02:55:25.862Z,9.60
2019-04-30T02:56:26.688Z,9.59
2019-04-30T02:57:25.805Z,9.62
2019-04-30T02:58:25.788Z,9.60
2019-04-30T02:59:25.801Z,9.67
2019-04-30T03:00:25.775Z,9.58
2019-04-30T03:01:25.756Z,9.59
2019-04-30T03:02:25.763Z,9.59
2019-04-30T03:03:25.762Z,9.65
2019-04-30T03:04:25.734Z,9.53
2019-04-30T03:05:25.721Z,9.53
2019-04-30T03:06:25.743Z,9.52
2019-04-30T03:07:25.694Z,9.48
2019-04-30T03:08:25.678Z,9.40
2019-04-30T03:09:25.679Z,9.40
2019-04-30T03:10:25.670Z,9.40
2019-04-30T03:11:25.665Z,9.44
2019-04-30T03:12:25.665Z,9.37
2019-04-30T03:13:25.626Z,9.44
2019-04-30T03:14:25.615Z,9.38
2019-04-30T03:15:25.633Z,9.30
2019-04-30T03:16:25.638Z,9.30
2019-04-30T03:17:25.588Z,9.32
2019-04-30T03:18:25.571Z,9.15
2019-04-30T03:19:25.568Z,9.20
2019-04-30T03:20:35.087Z,9.19
2019-04-30T03:21:29.036Z,9.17
2019-04-30T03:22:26.547Z,9.13
2019-04-30T03:23:25.525Z,9.22
2019-04-30T03:24:25.509Z,9.22
2019-04-30T03:25:25.500Z,9.26
2019-04-30T03:26:25.512Z,9.12
2019-04-30T03:27:25.506Z,9.10
2019-04-30T03:28:25.480Z,9.13
2019-04-30T03:29:25.486Z,9.03
2019-04-30T03:30:25.450Z,9.06
2019-04-30T03:31:25.439Z,8.98
2019-04-30T03:32:25.449Z,8.94
2019-04-30T03:33:25.436Z,9.00
2019-04-30T03:34:26.432Z,8.98
2019-04-30T03:35:25.392Z,8.96
2019-04-30T03:36:25.382Z,8.93
2019-04-30T03:37:25.384Z,8.88
2019-04-30T03:38:25.402Z,8.86
2019-04-30T03:39:25.349Z,8.79
2019-04-30T03:40:25.333Z,8.73
2019-04-30T03:41:25.349Z,8.76
2019-04-30T03:42:25.333Z,8.75
2019-04-30T03:43:25.313Z,8.79
2019-04-30T03:44:26.112Z,8.78
2019-04-30T03:45:25.318Z,8.71
2019-04-30T03:46:25.294Z,8.70
2019-04-30T03:47:25.310Z,8.70
2019-04-30T03:48:25.295Z,8.58
2019-04-30T03:49:25.242Z,8.64
2019-04-30T03:50:25.258Z,8.65
2019-04-30T03:51:25.229Z,8.71
2019-04-30T03:52:25.198Z,8.64
2019-04-30T03:53:25.192Z,8.63
2019-04-30T03:54:25.250Z,8.57
2019-04-30T03:55:25.193Z,8.64
2019-04-30T03:56:25.206Z,8.57
2019-04-30T03:58:54.143Z,8.65
2019-04-30T03:59:44.126Z,8.54
2019-04-30T04:00:46.591Z,8.54
2019-04-30T04:06:03.932Z,8.46
2019-04-30T04:07:12.326Z,8.37
2019-04-30T04:08:03.783Z,8.40
2019-04-30T04:09:03.772Z,8.37
2019-04-30T04:10:03.818Z,8.37
2019-04-30T04:19:49.449Z,8.20
2019-04-30T04:22:51.249Z,8.10
2019-04-30T04:25:20.474Z,8.06
2019-04-30T04:26:20.223Z,8.10
2019-04-30T04:28:36.693Z,7.96
2019-04-30T04:39:42.747Z,7.89
2019-04-30T04:40:46.748Z,7.91
2019-04-30T04:41:44.173Z,7.96
2019-04-30T04:42:41.526Z,7.92
2019-04-30T04:43:41.539Z,8.00
2019-04-30T04:44:41.522Z,7.91
2019-04-30T04:45:43.830Z,7.91
2019-04-30T04:46:50.342Z,7.86
2019-04-30T04:49:13.018Z,7.82
2019-04-30T04:59:33.024Z,7.86
2019-04-30T05:00:31.113Z,7.81
2019-04-30T05:01:31.131Z,7.82
2019-04-30T05:02:41.571Z,7.82
2019-04-30T05:03:31.123Z,7.85
2019-04-30T05:04:31.076Z,7.84
2019-04-30T05:05:31.054Z,7.82
2019-04-30T05:06:31.058Z,7.79
2019-04-30T05:07:31.041Z,7.86
2019-04-30T05:08:31.013Z,7.77
2019-04-30T05:09:31.042Z,7.88
2019-04-30T05:10:31.526Z,7.95
2019-04-30T05:11:31.700Z,7.94
2019-04-30T05:12:30.974Z,7.99
2019-04-30T05:13:30.957Z,7.92
2019-04-30T05:14:30.979Z,8.06
2019-04-30T05:15:30.960Z,7.99
2019-04-30T05:16:30.956Z,8.06
2019-04-30T05:24:09.060Z,8.07
2019-04-30T05:25:08.841Z,8.14
2019-04-30T05:26:11.079Z,8.07
2019-04-30T05:27:09.256Z,8.12
2019-04-30T05:28:09.026Z,8.09
2019-04-30T05:29:09.538Z,8.12
2019-04-30T05:30:11.749Z,8.20
2019-04-30T05:31:18.435Z,8.13
2019-04-30T05:33:48.887Z,8.20
2019-04-30T05:34:49.567Z,8.27
2019-04-30T05:35:49.476Z,8.31
2019-04-30T05:36:49.029Z,8.37
2019-04-30T05:37:49.366Z,8.40
2019-04-30T05:38:48.732Z,8.36
2019-04-30T05:39:48.914Z,8.40
2019-04-30T05:40:49.538Z,8.42
2019-04-30T05:42:51.488Z,8.52
2019-04-30T05:45:01.140Z,8.54
2019-04-30T06:05:13.639Z,9.00
2019-04-30T06:08:30.030Z,9.19
2019-04-30T06:12:11.141Z,9.19
2019-04-30T06:37:55.434Z,9.78
2019-04-30T06:38:55.370Z,9.71
2019-04-30T06:39:55.403Z,9.91
2019-04-30T06:40:55.386Z,9.96
2019-04-30T07:04:25.800Z,10.57
2019-04-30T07:05:25.378Z,10.55
2019-04-30T07:26:30.457Z,10.94
2019-04-30T07:27:43.016Z,10.99
2019-04-30T07:28:43.797Z,11.11
2019-04-30T07:29:31.399Z,11.16
2019-04-30T07:30:30.918Z,11.21
2019-04-30T07:31:30.332Z,11.21
2019-04-30T07:32:30.309Z,11.39
2019-04-30T07:33:30.307Z,11.39
2019-04-30T07:34:36.561Z,11.36
2019-04-30T07:35:31.293Z,11.42
2019-04-30T07:36:45.296Z,11.48
2019-04-30T07:37:31.283Z,11.51
2019-04-30T07:38:30.284Z,11.64
2019-04-30T07:39:33.293Z,11.66
2019-04-30T07:40:30.246Z,11.69
2019-04-30T07:41:31.197Z,11.85
2019-04-30T07:42:30.259Z,11.94
2019-04-30T07:43:30.209Z,11.87
2019-04-30T07:44:36.246Z,11.90
2019-04-30T07:45:32.176Z,11.94
2019-04-30T07:46:34.785Z,12.00
2019-04-30T07:47:31.152Z,12.12
2019-04-30T07:48:30.137Z,12.13
2019-04-30T07:49:46.207Z,12.22
2019-04-30T07:50:32.152Z,12.11
2019-04-30T07:51:32.191Z,12.11
2019-04-30T07:52:33.946Z,12.25
2019-04-30T07:53:30.960Z,12.25
2019-04-30T07:54:30.170Z,12.29
2019-04-30T07:55:30.064Z,12.26
2019-04-30T07:56:37.348Z,12.23
2019-04-30T07:57:32.514Z,12.29
2019-04-30T07:58:30.023Z,12.26
2019-04-30T07:59:30.258Z,12.31
2019-04-30T08:00:31.248Z,12.36
2019-04-30T08:01:29.993Z,12.37
2019-04-30T08:02:36.036Z,12.38
2019-04-30T08:03:31.276Z,12.41
2019-04-30T08:04:29.959Z,12.36
2019-04-30T08:05:30.009Z,12.26
2019-04-30T08:06:30.887Z,12.25
2019-04-30T08:07:30.321Z,12.22
2019-04-30T08:08:30.485Z,12.37
2019-04-30T08:09:39.214Z,12.37
2019-04-30T08:10:30.889Z,12.34
2019-04-30T08:11:34.412Z,12.40
2019-04-30T08:12:35.806Z,12.38
2019-04-30T08:13:32.855Z,12.44
2019-04-30T08:14:29.880Z,12.37
2019-04-30T08:15:29.852Z,12.40
2019-04-30T08:16:29.828Z,12.48
2019-04-30T08:17:29.832Z,12.49
2019-04-30T08:18:29.799Z,12.52
2019-04-30T08:19:29.792Z,12.62
2019-04-30T08:20:29.800Z,12.76
2019-04-30T08:21:29.796Z,12.84
2019-04-30T08:22:29.844Z,12.76
2019-04-30T08:23:34.848Z,12.81
2019-04-30T08:24:30.746Z,12.84
2019-04-30T08:25:29.738Z,12.87
2019-04-30T08:26:29.719Z,12.88
2019-04-30T08:27:29.766Z,12.95
2019-04-30T08:28:30.390Z,12.95
2019-04-30T08:29:29.693Z,13.10
2019-04-30T08:30:30.132Z,13.13
2019-04-30T08:31:29.656Z,13.27
2019-04-30T08:32:29.677Z,13.36
2019-04-30T08:33:29.651Z,13.47
2019-04-30T08:34:29.637Z,13.47
2019-04-30T08:35:29.770Z,13.62
2019-04-30T08:36:29.949Z,13.71
2019-04-30T08:37:29.636Z,13.76
2019-04-30T08:38:30.090Z,13.84
2019-04-30T08:39:31.905Z,13.88
2019-04-30T08:40:29.814Z,13.88
2019-04-30T08:41:29.574Z,14.02
2019-04-30T08:42:33.875Z,14.20
2019-04-30T08:43:30.536Z,14.53
2019-04-30T08:44:29.726Z,14.85
2019-04-30T08:45:32.196Z,15.16
2019-04-30T08:46:30.512Z,15.40
2019-04-30T08:47:29.493Z,15.44
2019-04-30T08:48:44.253Z,15.44
2019-04-30T08:49:31.086Z,15.38
2019-04-30T08:50:30.174Z,15.35
2019-04-30T08:51:31.126Z,15.35
2019-04-30T08:52:30.485Z,15.35
2019-04-30T08:53:33.192Z,15.44
2019-04-30T08:54:29.587Z,15.68
2019-04-30T08:55:30.409Z,15.76
2019-04-30T08:56:29.731Z,15.70
2019-04-30T08:57:29.498Z,15.56
2019-04-30T08:58:29.377Z,15.33
2019-04-30T08:59:29.576Z,15.59
2019-04-30T09:00:29.789Z,15.67
2019-04-30T09:01:29.619Z,15.89
2019-04-30T09:02:29.343Z,15.91
2019-04-30T09:03:29.682Z,16.17
2019-04-30T09:04:29.317Z,16.26
2019-04-30T09:05:30.637Z,16.42
2019-04-30T09:06:29.809Z,16.70
2019-04-30T09:07:29.783Z,16.78
2019-04-30T09:08:29.494Z,16.88
2019-04-30T09:09:29.617Z,16.90
2019-04-30T09:10:29.481Z,16.96
2019-04-30T09:11:35.588Z,16.95
2019-04-30T09:12:30.258Z,16.65
2019-04-30T09:13:29.219Z,16.69
2019-04-30T09:14:29.902Z,16.51
2019-04-30T09:15:29.241Z,16.18
2019-04-30T09:16:29.563Z,15.93
2019-04-30T09:17:29.687Z,16.01
2019-04-30T09:18:29.344Z,16.16
2019-04-30T09:19:29.886Z,16.41
2019-04-30T09:20:29.270Z,16.55
2019-04-30T09:21:29.975Z,16.66
2019-04-30T09:22:29.388Z,16.70
2019-04-30T09:23:42.582Z,16.73
2019-04-30T09:24:31.099Z,16.69
2019-04-30T09:25:32.000Z,16.66
2019-04-30T09:26:29.235Z,16.65
2019-04-30T09:27:29.619Z,16.55
2019-04-30T09:28:29.510Z,16.59
2019-04-30T09:29:29.380Z,16.66
2019-04-30T09:30:29.916Z,16.77
2019-04-30T09:31:29.713Z,16.70
2019-04-30T09:32:29.230Z,16.69
2019-04-30T09:33:29.453Z,16.80
2019-04-30T09:34:29.295Z,16.90
2019-04-30T09:35:31.856Z,16.82
2019-04-30T09:36:29.364Z,16.80
2019-04-30T09:37:30.618Z,16.59
2019-04-30T09:38:29.130Z,16.42
2019-04-30T09:39:29.530Z,16.48
2019-04-30T09:40:32.158Z,16.59
2019-04-30T09:41:29.586Z,16.66
2019-04-30T09:42:29.607Z,16.81
2019-04-30T09:43:28.931Z,16.92
2019-04-30T09:44:30.723Z,16.82
2019-04-30T09:45:28.892Z,16.88
2019-04-30T09:46:29.884Z,17.00
2019-04-30T09:47:29.543Z,17.06
2019-04-30T09:48:30.582Z,17.09
2019-04-30T09:49:29.411Z,17.24
2019-04-30T09:50:29.511Z,17.25
2019-04-30T09:51:30.689Z,17.25
2019-04-30T09:52:30.816Z,17.36
2019-04-30T09:53:29.724Z,17.45
2019-04-30T09:54:29.570Z,17.14
2019-04-30T09:55:29.171Z,17.05
2019-04-30T09:56:29.405Z,17.15
2019-04-30T09:57:29.080Z,17.22
2019-04-30T09:58:29.992Z,17.49
2019-04-30T09:59:29.108Z,17.66
2019-04-30T10:00:29.504Z,17.79
2019-04-30T10:01:28.869Z,17.81
2019-04-30T10:02:29.070Z,17.73
2019-04-30T10:03:30.865Z,17.62
2019-04-30T10:04:30.302Z,17.47
2019-04-30T10:05:29.211Z,17.45
2019-04-30T10:06:39.357Z,17.45
2019-04-30T10:07:29.736Z,17.49
2019-04-30T10:08:30.745Z,17.60
2019-04-30T10:09:29.342Z,17.76
2019-04-30T10:10:28.951Z,17.92
2019-04-30T10:11:28.674Z,17.91
2019-04-30T10:12:29.395Z,17.76
2019-04-30T10:13:28.636Z,17.84
2019-04-30T10:14:28.603Z,18.01
2019-04-30T10:15:29.008Z,18.13
2019-04-30T10:16:29.614Z,18.23
2019-04-30T10:17:28.592Z,18.25
2019-04-30T10:18:28.570Z,18.32
2019-04-30T10:19:36.565Z,18.42
2019-04-30T10:20:28.568Z,18.39
2019-04-30T10:33:49.354Z,18.82
2019-04-30T10:34:48.965Z,18.68
2019-04-30T10:35:49.609Z,18.74
2019-04-30T10:36:49.454Z,18.86
2019-04-30T10:37:48.902Z,19.07
2019-04-30T10:38:49.444Z,19.32
2019-04-30T10:39:49.158Z,19.67
2019-04-30T10:47:56.535Z,19.89
2019-04-30T11:09:16.494Z,20.78
2019-04-30T11:12:46.585Z,20.69
2019-04-30T11:15:32.102Z,20.76
2019-04-30T11:16:31.635Z,20.85
2019-04-30T11:17:33.639Z,21.01
2019-04-30T11:18:31.715Z,21.09
2019-04-30T11:19:43.216Z,21.00
2019-04-30T11:20:31.752Z,20.88
2019-04-30T11:21:32.388Z,20.88
2019-04-30T11:22:31.823Z,20.63
2019-04-30T11:23:31.678Z,20.38
2019-04-30T11:24:38.096Z,20.35
2019-04-30T11:25:32.890Z,19.80
2019-04-30T11:26:32.313Z,19.57
2019-04-30T11:27:32.185Z,19.55
2019-04-30T11:28:31.679Z,19.61
2019-04-30T11:29:32.100Z,19.57
2019-04-30T11:30:31.642Z,19.35
2019-04-30T11:31:31.611Z,19.17
2019-04-30T11:32:31.652Z,19.12
2019-04-30T11:33:31.744Z,19.32
2019-04-30T11:34:31.437Z,19.47
2019-04-30T11:35:31.392Z,19.64
2019-04-30T11:36:32.131Z,19.83
2019-04-30T11:37:31.374Z,20.05
2019-04-30T11:38:31.380Z,20.10
2019-04-30T11:39:31.352Z,20.08
2019-04-30T11:40:36.620Z,20.15
2019-04-30T11:41:33.285Z,20.25
2019-04-30T11:42:32.406Z,20.12
2019-04-30T11:43:31.315Z,20.20
2019-04-30T11:44:31.690Z,20.20
2019-04-30T11:45:31.304Z,20.02
2019-04-30T11:46:31.303Z,20.20
2019-04-30T11:47:31.275Z,20.46
2019-04-30T11:48:31.267Z,20.71
2019-04-30T11:49:31.275Z,20.83
2019-04-30T11:50:31.257Z,21.00
2019-04-30T11:51:31.234Z,21.18
2019-04-30T11:52:31.244Z,21.12
2019-04-30T11:53:32.079Z,21.11
2019-04-30T11:54:31.238Z,21.00
2019-04-30T11:55:31.310Z,21.08
2019-04-30T11:56:31.295Z,21.08
2019-04-30T11:57:31.221Z,21.22
2019-04-30T11:58:31.221Z,21.31
2019-04-30T11:59:31.170Z,21.48
2019-04-30T12:00:31.168Z,21.42
2019-04-30T12:01:31.259Z,21.67
2019-04-30T12:02:31.313Z,21.64
2019-04-30T12:03:31.205Z,21.85
2019-04-30T12:04:31.121Z,21.99
2019-04-30T12:05:31.222Z,22.04
2019-04-30T12:08:49.182Z,21.98
2019-04-30T12:10:59.325Z,21.81
2019-04-30T12:12:10.365Z,21.70
2019-04-30T12:12:58.869Z,21.67
2019-04-30T12:13:58.728Z,21.67
2019-04-30T12:15:01.085Z,21.74
2019-04-30T12:15:59.060Z,21.77
2019-04-30T12:16:58.837Z,21.89
2019-04-30T12:17:58.943Z,21.93
2019-04-30T12:18:59.034Z,21.91
2019-04-30T12:19:58.729Z,21.85
2019-04-30T12:20:58.669Z,21.93
2019-04-30T12:21:58.661Z,21.70
2019-04-30T12:22:59.145Z,21.68
2019-04-30T12:23:58.684Z,21.67
2019-04-30T12:25:04.881Z,21.66
2019-04-30T12:26:02.678Z,21.56
2019-04-30T12:26:58.604Z,21.46
2019-04-30T12:27:59.687Z,21.42
2019-04-30T12:29:08.956Z,21.70
2019-04-30T12:35:06.218Z,22.24
2019-04-30T12:36:08.874Z,22.21
2019-04-30T12:37:06.174Z,22.24
2019-04-30T12:39:51.796Z,22.39
2019-04-30T12:40:51.354Z,22.42
2019-04-30T12:41:51.362Z,22.44
2019-04-30T12:42:51.392Z,22.11
2019-04-30T12:43:52.276Z,21.82
2019-04-30T12:44:51.303Z,21.75
2019-04-30T12:46:02.212Z,21.68
2019-04-30T12:46:52.286Z,21.71
2019-04-30T12:47:51.327Z,21.70
2019-04-30T12:48:51.310Z,21.27
2019-04-30T12:49:51.292Z,21.11
2019-04-30T12:50:51.246Z,21.06
2019-04-30T12:53:12.038Z,21.40
2019-04-30T12:54:11.940Z,21.63
2019-04-30T12:55:15.506Z,21.68
2019-04-30T12:56:11.481Z,21.68
2019-04-30T12:57:11.468Z,21.67
2019-04-30T12:58:11.453Z,21.70
2019-04-30T12:59:11.518Z,21.67
2019-04-30T13:00:11.481Z,21.63
2019-04-30T13:01:11.470Z,21.36
2019-04-30T13:02:11.414Z,21.36
2019-04-30T13:03:11.425Z,21.27
2019-04-30T13:04:11.433Z,21.27
2019-04-30T13:05:11.374Z,21.36
2019-04-30T13:06:12.025Z,21.46
2019-04-30T13:07:12.188Z,21.67
2019-04-30T13:08:11.915Z,21.85
2019-04-30T13:09:14.579Z,22.05
2019-04-30T13:10:12.038Z,22.35
2019-04-30T13:11:13.019Z,22.42
2019-04-30T13:23:33.254Z,22.36
2019-04-30T13:24:32.153Z,22.63
2019-04-30T13:25:35.526Z,22.99
2019-04-30T13:26:32.372Z,23.45
2019-04-30T13:27:32.091Z,23.67
2019-04-30T13:28:32.511Z,23.84
2019-04-30T13:29:32.256Z,23.97
2019-04-30T13:30:32.092Z,24.09
2019-04-30T13:31:32.008Z,24.19
2019-04-30T13:32:32.897Z,24.24
2019-04-30T13:33:31.981Z,24.05
2019-04-30T13:34:32.186Z,23.99
2019-04-30T13:35:33.001Z,23.99
2019-04-30T13:36:32.033Z,23.89
2019-04-30T13:37:31.956Z,23.64
2019-04-30T13:59:58.618Z,23.38
2019-04-30T14:05:59.421Z,22.76
2019-04-30T14:11:20.295Z,22.38
2019-04-30T14:12:19.432Z,22.26
2019-04-30T14:13:19.460Z,22.21
2019-04-30T14:14:19.996Z,22.19
2019-04-30T14:19:42.160Z,21.85
2019-04-30T14:20:41.741Z,21.93
2019-04-30T14:21:41.769Z,22.01
2019-04-30T14:22:41.839Z,22.08
2019-04-30T14:23:42.673Z,22.09
2019-04-30T14:36:53.728Z,21.48
2019-04-30T14:39:20.427Z,21.46
2019-04-30T14:41:40.922Z,21.61
2019-04-30T14:42:40.188Z,21.61
2019-04-30T14:43:42.788Z,21.61
2019-04-30T14:44:45.902Z,21.45
2019-04-30T14:45:40.096Z,21.48
2019-04-30T14:50:25.975Z,21.11
2019-04-30T14:51:25.903Z,21.06
2019-04-30T14:52:34.442Z,21.09
2019-04-30T14:53:32.655Z,21.00
2019-04-30T14:54:25.954Z,20.94
2019-04-30T14:55:29.365Z,20.79
2019-04-30T14:59:22.524Z,20.61
2019-04-30T15:00:26.219Z,20.50
2019-04-30T15:01:24.585Z,20.42
2019-04-30T15:02:22.601Z,20.41
2019-04-30T15:07:27.254Z,20.48
2019-04-30T15:08:26.235Z,20.57
2019-04-30T15:09:26.216Z,20.68
2019-04-30T15:10:26.752Z,20.69
2019-04-30T15:11:28.733Z,20.51
2019-04-30T15:12:26.199Z,20.46
2019-04-30T15:13:26.156Z,20.40
2019-04-30T15:14:26.241Z,20.44
2019-04-30T15:15:26.510Z,20.23
2019-04-30T15:16:29.086Z,20.35
2019-04-30T15:20:44.488Z,20.68
2019-04-30T15:21:45.431Z,20.72
2019-04-30T15:22:44.354Z,20.68
2019-04-30T15:23:45.041Z,20.50
2019-04-30T15:31:01.218Z,20.22
2019-04-30T15:32:03.566Z,20.16
2019-04-30T15:33:00.499Z,20.08
2019-04-30T15:34:03.055Z,19.95
2019-04-30T15:35:08.863Z,19.83
2019-04-30T15:36:02.170Z,19.82
2019-04-30T15:37:01.362Z,19.76
2019-04-30T15:43:11.932Z,19.72
2019-04-30T15:44:12.317Z,19.75
2019-04-30T15:45:14.862Z,19.72
2019-04-30T15:46:11.702Z,19.80
2019-04-30T15:48:43.988Z,19.83
2019-04-30T15:49:40.917Z,19.92
2019-04-30T15:51:42.361Z,19.85
2019-04-30T15:58:19.213Z,19.92
2019-04-30T16:01:58.102Z,19.67
2019-04-30T16:03:00.071Z,19.58
2019-04-30T16:03:57.693Z,19.49
2019-04-30T16:04:59.888Z,19.43
2019-04-30T16:07:49.229Z,19.52
2019-04-30T16:08:44.669Z,19.49
2019-04-30T16:57:33.373Z,18.05
2019-04-30T16:58:32.891Z,18.05
2019-04-30T16:59:33.071Z,17.89
2019-04-30T17:00:32.852Z,17.89
2019-04-30T17:01:32.879Z,17.77
2019-04-30T17:02:32.841Z,17.79
2019-04-30T17:03:33.112Z,17.63
2019-04-30T17:04:32.810Z,17.76
2019-04-30T17:05:32.807Z,17.66
2019-04-30T17:06:32.812Z,17.70
2019-04-30T17:07:32.819Z,17.73
2019-04-30T17:08:32.822Z,17.63
2019-04-30T17:09:32.841Z,17.79
2019-04-30T17:10:32.777Z,17.77
2019-04-30T17:11:32.745Z,17.62
2019-04-30T17:12:32.716Z,17.62
2019-04-30T17:13:32.745Z,17.58
2019-04-30T17:14:32.724Z,17.47
2019-04-30T17:15:32.704Z,17.49
2019-04-30T17:16:32.675Z,17.40
2019-04-30T17:17:32.696Z,17.43
2019-04-30T17:18:32.686Z,17.43
2019-04-30T17:19:32.655Z,17.39
2019-04-30T17:20:32.626Z,17.33
2019-04-30T17:21:32.621Z,17.38
2019-04-30T17:22:32.632Z,17.38
2019-04-30T17:23:32.593Z,17.24
2019-04-30T17:24:33.100Z,17.21
2019-04-30T17:25:32.570Z,17.22
2019-04-30T17:26:32.564Z,17.20
2019-04-30T17:27:32.601Z,17.14
2019-04-30T17:28:32.665Z,17.12
2019-04-30T17:29:32.537Z,17.02
2019-04-30T17:30:33.577Z,17.05
2019-04-30T17:56:31.128Z,16.32
2019-04-30T17:57:34.386Z,16.26
2019-04-30T17:58:30.726Z,16.23
2019-04-30T17:59:30.661Z,16.14
2019-04-30T18:00:30.657Z,16.17
2019-04-30T18:01:32.254Z,16.17
2019-04-30T18:02:30.705Z,16.06
2019-04-30T18:03:30.626Z,16.06
2019-04-30T18:04:30.636Z,16.07
2019-04-30T18:05:30.620Z,16.03
2019-04-30T18:07:49.808Z,15.91
2019-04-30T18:08:47.982Z,15.89
2019-04-30T18:09:48.790Z,15.88
2019-04-30T18:18:19.260Z,15.78
2019-04-30T18:22:43.793Z,15.77
2019-04-30T18:24:59.185Z,15.64
2019-04-30T18:36:59.357Z,15.27
2019-04-30T18:37:58.958Z,15.31
2019-04-30T18:38:59.087Z,15.19
2019-04-30T18:40:00.179Z,15.16
2019-04-30T18:40:59.460Z,15.18
2019-04-30T18:41:58.883Z,15.15
2019-04-30T18:43:00.003Z,15.13
2019-04-30T18:44:25.902Z,15.11
2019-04-30T18:44:58.842Z,15.07
2019-04-30T18:46:00.664Z,15.04
2019-04-30T18:46:59.102Z,15.05
2019-04-30T18:49:03.033Z,14.86
2019-04-30T18:50:00.855Z,14.91
2019-04-30T18:51:00.223Z,14.83
2019-04-30T18:51:59.117Z,14.85
2019-04-30T18:53:00.209Z,14.79
2019-04-30T18:54:06.544Z,14.86
2019-04-30T18:54:59.493Z,14.75
2019-04-30T18:56:03.403Z,14.82
2019-04-30T19:00:37.016Z,14.66
2019-04-30T19:10:55.695Z,14.36
2019-04-30T19:11:55.497Z,14.20
2019-04-30T19:12:56.301Z,14.16
2019-04-30T19:13:55.440Z,14.20
2019-04-30T19:14:55.453Z,14.19
2019-04-30T19:16:18.049Z,14.12
2019-04-30T19:16:56.409Z,14.17
2019-04-30T19:18:00.745Z,14.09
2019-04-30T19:18:55.387Z,14.11
2019-04-30T19:19:55.379Z,14.13
2019-04-30T19:20:55.372Z,13.98
2019-04-30T19:21:56.085Z,13.98
2019-04-30T19:22:55.613Z,13.94
2019-04-30T19:23:55.343Z,13.99
2019-04-30T19:24:58.685Z,13.99
2019-04-30T19:25:56.508Z,13.90
2019-04-30T19:26:55.298Z,13.86
2019-04-30T19:27:55.320Z,13.83
2019-04-30T19:28:55.333Z,13.83
2019-04-30T19:29:55.264Z,13.83
2019-04-30T19:30:58.393Z,13.69
2019-04-30T19:31:56.278Z,13.75
2019-04-30T19:32:55.249Z,13.69
2019-04-30T19:33:55.211Z,13.68
2019-04-30T19:34:55.227Z,13.66
2019-04-30T19:35:55.210Z,13.61
2019-04-30T19:36:55.181Z,13.63
2019-04-30T19:37:55.173Z,13.61
2019-04-30T19:38:55.166Z,13.55
2019-04-30T19:39:55.247Z,13.51
2019-04-30T19:40:55.157Z,13.51
2019-04-30T19:41:55.149Z,13.43
2019-04-30T19:42:58.129Z,13.47
2019-04-30T19:43:55.160Z,13.47
2019-04-30T19:44:58.978Z,13.50
2019-04-30T19:45:56.112Z,13.31
2019-04-30T19:46:55.068Z,13.28
2019-04-30T19:47:55.077Z,13.35